Vandemere, North Carolina
Current Conditions -  °F | °C
As of 5:56 PM on Thursday 20 Nov 2014 (Local Time) from KNBT Reporting Station
Clear Clear  
Wind Chill: 50°   Ceiling: Unl
Heat Index: 50°   Visibility: NA
Dew Point: 37°   Wind: 8mph
Humidity: 61%   Direction: 200°SSW
Pressure: 30.08"   Gusts: NA
Location:  35.18°N, 76.66°W
Report Text: KNBT 202256Z AUTO 20007KT CLR 10/03 A3008 RMK AO2 SLP188 T01000028 PNO $
Loading
Personal Weather Stations






























Interactive Weather Map New forecast layout! Learn more

10-Day Weather Forecast

Advertisements
Track Severe Weather on mobile